createdAt,value
2022-12-29T00:01:04.117Z,77.39
2022-12-29T00:07:07.534Z,74.61
2022-12-29T00:13:28.045Z,76.06
2022-12-29T00:19:48.570Z,77.36
2022-12-29T00:26:11.120Z,75.70
2022-12-29T00:32:31.643Z,78.23
2022-12-29T00:38:58.218Z,76.57
2022-12-29T00:45:00.690Z,78.80
2022-12-29T00:51:02.465Z,78.79
2022-12-29T00:57:06.661Z,77.77
2022-12-29T01:03:09.209Z,75.09
2022-12-29T01:09:29.584Z,77.50
2022-12-29T01:15:32.077Z,76.40
2022-12-29T01:21:34.526Z,75.90
2022-12-29T01:27:36.319Z,77.19
2022-12-29T01:33:38.731Z,75.30
2022-12-29T01:39:40.431Z,77.92
2022-12-29T01:45:49.556Z,75.07
2022-12-29T01:52:05.242Z,75.18
2022-12-29T01:58:07.773Z,75.21
2022-12-29T02:04:13.005Z,75.44
2022-12-29T02:10:14.947Z,74.33
2022-12-29T02:16:25.959Z,74.67
2022-12-29T02:22:51.465Z,75.49
2022-12-29T02:28:59.067Z,78.72
2022-12-29T02:35:16.201Z,79.01
2022-12-29T02:41:58.831Z,77.15
2022-12-29T02:48:44.915Z,79.96
2022-12-29T02:54:50.312Z,77.75
2022-12-29T03:01:33.383Z,79.74
2022-12-29T03:07:44.375Z,77.88
2022-12-29T03:14:09.735Z,79.37
2022-12-29T03:20:22.256Z,78.62
2022-12-29T03:26:24.712Z,76.02
2022-12-29T03:32:49.278Z,76.36
2022-12-29T03:39:03.797Z,77.87
2022-12-29T03:45:07.301Z,78.53
2022-12-29T03:51:09.787Z,77.69
2022-12-29T03:57:12.119Z,77.37
2022-12-29T04:03:14.032Z,77.59
2022-12-29T04:09:16.088Z,75.88
2022-12-29T04:15:20.634Z,77.29
2022-12-29T04:21:23.067Z,77.28
2022-12-29T04:27:25.530Z,77.54
2022-12-29T04:33:27.976Z,77.77
2022-12-29T04:39:30.441Z,76.50
2022-12-29T04:45:32.885Z,78.30
2022-12-29T04:51:35.348Z,77.21
2022-12-29T04:57:37.920Z,79.95
2022-12-29T05:03:40.410Z,77.86
2022-12-29T05:09:42.696Z,76.54
2022-12-29T05:15:51.158Z,76.59
2022-12-29T05:21:53.052Z,76.51
2022-12-29T05:27:55.285Z,75.93
2022-12-29T05:33:57.049Z,78.00
2022-12-29T05:40:00.385Z,78.52
2022-12-29T05:46:02.807Z,76.96
2022-12-29T05:52:04.747Z,77.33
2022-12-29T05:58:06.566Z,78.43
2022-12-29T06:04:09.342Z,76.66
2022-12-29T06:10:11.162Z,80.82
2022-12-29T06:16:13.883Z,76.16
2022-12-29T06:22:16.271Z,78.88
2022-12-29T06:28:19.729Z,76.26
2022-12-29T06:34:22.511Z,77.24
2022-12-29T06:40:24.350Z,76.85
2022-12-29T06:46:26.237Z,76.76
2022-12-29T06:52:30.672Z,76.02
2022-12-29T06:58:33.199Z,76.41
2022-12-29T07:04:36.569Z,76.62
2022-12-29T07:10:39.017Z,77.01
2022-12-29T07:16:41.499Z,76.76
2022-12-29T07:22:43.933Z,76.81
2022-12-29T07:28:46.408Z,76.60
2022-12-29T07:34:48.877Z,75.38
2022-12-29T07:40:51.327Z,74.53
2022-12-29T07:46:57.312Z,73.64
2022-12-29T07:53:00.201Z,73.48
2022-12-29T07:59:01.990Z,73.18
2022-12-29T08:05:04.070Z,73.62
2022-12-29T08:11:05.877Z,71.68
2022-12-29T08:17:07.863Z,69.78
2022-12-29T08:23:09.726Z,70.31
2022-12-29T08:29:11.536Z,68.11
2022-12-29T08:35:14.472Z,67.78
2022-12-29T08:41:17.018Z,66.05
2022-12-29T08:47:19.492Z,65.30
2022-12-29T08:53:21.960Z,63.88
2022-12-29T08:59:24.417Z,63.46
2022-12-29T09:05:26.888Z,62.17
2022-12-29T09:11:28.767Z,62.05
2022-12-29T09:17:46.867Z,61.85
2022-12-29T09:23:53.323Z,62.48
2022-12-29T09:29:55.827Z,62.56
2022-12-29T09:36:00.266Z,60.07
2022-12-29T09:42:10.773Z,58.47
2022-12-29T09:48:27.300Z,60.65
2022-12-29T09:54:58.091Z,56.21
2022-12-29T10:01:07.925Z,54.01
2022-12-29T10:07:30.306Z,53.85
2022-12-29T10:13:45.456Z,51.35
2022-12-29T10:19:47.115Z,59.25
2022-12-29T10:25:49.374Z,60.20
2022-12-29T10:32:04.920Z,60.92
2022-12-29T10:38:20.469Z,60.83
2022-12-29T10:44:24.900Z,59.90
2022-12-29T10:50:28.385Z,60.21
2022-12-29T10:56:37.847Z,61.04
2022-12-29T11:03:02.659Z,60.67
2022-12-29T11:09:36.599Z,61.29
2022-12-29T11:15:50.526Z,62.38
2022-12-29T11:21:53.992Z,62.29
2022-12-29T11:28:14.539Z,63.42
2022-12-29T11:34:32.062Z,62.70
2022-12-29T11:40:43.548Z,62.86
2022-12-29T11:46:50.051Z,63.66
2022-12-29T11:53:00.534Z,63.11
2022-12-29T11:59:38.165Z,61.95
2022-12-29T12:05:53.745Z,62.16
2022-12-29T12:11:57.176Z,62.81
2022-12-29T12:18:13.695Z,62.87
2022-12-29T12:24:36.267Z,63.11
2022-12-29T12:30:46.771Z,64.26
2022-12-29T12:37:08.267Z,64.13
2022-12-29T12:43:22.793Z,63.76
2022-12-29T12:50:03.398Z,65.13
2022-12-29T12:56:24.165Z,65.45
2022-12-29T13:02:29.654Z,65.22
2022-12-29T13:09:07.992Z,65.60
2022-12-29T13:15:44.626Z,65.79
2022-12-29T13:22:05.958Z,65.29
2022-12-29T13:28:25.672Z,66.56
2022-12-29T13:35:05.286Z,66.93
2022-12-29T13:41:18.812Z,66.54
2022-12-29T13:47:39.329Z,66.54
2022-12-29T13:54:20.910Z,66.65
2022-12-29T14:00:27.382Z,66.09
2022-12-29T14:06:29.866Z,66.38
2022-12-29T14:12:42.384Z,66.63
2022-12-29T14:18:46.851Z,66.90
2022-12-29T14:24:49.316Z,66.75
2022-12-29T14:30:54.802Z,71.95
2022-12-29T14:37:03.239Z,68.21
2022-12-29T14:43:16.285Z,67.43
2022-12-29T14:49:25.249Z,67.71
2022-12-29T14:55:47.841Z,67.47
2022-12-29T15:01:57.382Z,67.65
2022-12-29T15:08:01.749Z,69.65
2022-12-29T15:14:04.215Z,70.68
2022-12-29T15:20:28.937Z,73.94
2022-12-29T15:26:40.314Z,69.26
2022-12-29T15:32:45.778Z,68.65
2022-12-29T15:38:49.253Z,71.94
2022-12-29T15:44:57.979Z,69.78
2022-12-29T15:51:29.331Z,69.92
2022-12-29T15:57:38.804Z,76.68
2022-12-29T16:03:43.651Z,73.74
2022-12-29T16:09:46.758Z,74.14
2022-12-29T16:15:50.219Z,72.50
2022-12-29T16:21:55.722Z,75.20
2022-12-29T16:27:58.195Z,73.67
2022-12-29T16:34:11.708Z,73.30
2022-12-29T16:40:21.155Z,71.64
2022-12-29T16:46:30.700Z,79.20
2022-12-29T16:52:35.991Z,72.79
2022-12-29T16:58:43.535Z,79.58
2022-12-29T17:04:51.097Z,77.34
2022-12-29T17:11:13.817Z,73.15
2022-12-29T17:17:17.437Z,75.31
2022-12-29T17:23:26.452Z,78.78
2022-12-29T17:29:38.096Z,76.67
2022-12-29T17:35:40.556Z,72.92
2022-12-29T17:41:43.003Z,77.52
2022-12-29T17:47:45.502Z,76.92
2022-12-29T17:53:47.943Z,73.99
2022-12-29T17:59:50.424Z,74.47
2022-12-29T18:05:52.900Z,73.46
2022-12-29T18:11:55.360Z,74.42
2022-12-29T18:18:12.879Z,75.26
2022-12-29T18:24:16.317Z,78.51
2022-12-29T18:30:19.813Z,79.92
2022-12-29T18:36:23.330Z,81.15
2022-12-29T18:42:25.749Z,78.73
2022-12-29T18:48:29.235Z,78.33
2022-12-29T18:54:33.714Z,80.76
2022-12-29T19:00:36.188Z,77.91
2022-12-29T19:06:38.646Z,81.24
2022-12-29T19:12:42.312Z,80.33
2022-12-29T19:18:58.151Z,76.67
2022-12-29T19:25:02.051Z,80.61
2022-12-29T19:31:05.782Z,78.86
2022-12-29T19:37:08.000Z,79.10
2022-12-29T19:43:12.474Z,79.89
2022-12-29T19:49:17.962Z,77.54
2022-12-29T19:55:20.419Z,78.00
2022-12-29T20:01:23.999Z,79.83
2022-12-29T20:07:27.485Z,80.17
2022-12-29T20:13:30.953Z,74.86
2022-12-29T20:19:34.487Z,72.46
2022-12-29T20:31:52.514Z,69.07
2022-12-29T20:37:54.846Z,68.35
2022-12-29T20:44:02.145Z,68.59
2022-12-29T20:50:04.861Z,66.59
2022-12-29T20:56:11.322Z,65.66
2022-12-29T21:02:25.916Z,65.50
2022-12-29T21:08:31.334Z,64.38
2022-12-29T21:14:42.174Z,64.42
2022-12-29T21:21:02.473Z,64.43
2022-12-29T21:27:05.814Z,65.13
2022-12-29T21:33:08.037Z,64.19
2022-12-29T21:39:16.132Z,64.74
2022-12-29T21:45:27.218Z,65.26
2022-12-29T21:51:49.736Z,65.58
2022-12-29T21:58:11.346Z,67.24
2022-12-29T22:04:36.512Z,65.95
2022-12-29T22:11:05.454Z,66.66
2022-12-29T22:17:13.804Z,66.38
2022-12-29T22:23:16.066Z,69.22
2022-12-29T22:29:19.833Z,68.40
2022-12-29T22:35:22.344Z,66.66
2022-12-29T22:41:24.977Z,67.67
2022-12-29T22:47:27.273Z,69.24
2022-12-29T22:53:29.828Z,67.55
2022-12-29T22:59:32.268Z,66.79
2022-12-29T23:05:34.765Z,67.41
2022-12-29T23:11:37.207Z,67.59
2022-12-29T23:17:39.669Z,68.73
2022-12-29T23:23:58.189Z,69.81
2022-12-29T23:30:00.651Z,67.89
2022-12-29T23:36:03.131Z,67.89
2022-12-29T23:42:20.804Z,66.76
2022-12-29T23:48:23.130Z,65.83
2022-12-29T23:54:29.587Z,65.96
